JAL133 RJTT-RJOO
Flight info
| Callsign | JAL133 |
|---|---|
| Flight time | N/A |
| Altitude | 32000 |
| Route | LAXAS Y56 TOHME Y54 KOHWA Y546 AGPUK MIRAI ABENO IKOMA |
| Aircraft | A359/H-SDE2E3GHIJ3J4J5LM1ORWXY/LB1D1 |
Departure
| Time | 2026-02-19 21:56 |
|---|---|
| Airport | Tokyo Haneda International Airport (RJTT) |
Arrival
| Time | N/A |
|---|---|
| Airport | Osaka Itami International Airport (RJOO) |
| Time | Latitude | Longitude | Altitude | Speed | Heading |
|---|---|---|---|---|---|
| 2026-02-19 21:04 | 35.55081 | 139.78053 | 30 ft | 0 kts | 96° |
| 2026-02-19 21:16 | 35.55094 | 139.78074 | 30 ft | 0 kts | 58° |
| 2026-02-19 21:22 | 35.55093 | 139.78074 | 30 ft | 0 kts | 58° |
| 2026-02-19 21:23 | 35.55093 | 139.78073 | 30 ft | 0 kts | 58° |
| 2026-02-19 21:38 | 35.55090 | 139.78066 | 29 ft | 2 kts | 58° |
| 2026-02-19 21:38 | 35.55079 | 139.78045 | 28 ft | 3 kts | 58° |
| 2026-02-19 21:38 | 35.55069 | 139.78024 | 29 ft | 3 kts | 58° |
| 2026-02-19 21:39 | 35.55060 | 139.78007 | 27 ft | 2 kts | 59° |
| 2026-02-19 21:39 | 35.55052 | 139.77991 | 27 ft | 3 kts | 84° |
| 2026-02-19 21:39 | 35.55052 | 139.77975 | 26 ft | 3 kts | 118° |
| 2026-02-19 21:39 | 35.55062 | 139.77958 | 26 ft | 3 kts | 139° |
| 2026-02-19 21:40 | 35.55078 | 139.77943 | 27 ft | 2 kts | 148° |
| 2026-02-19 21:40 | 35.55084 | 139.77938 | 27 ft | 0 kts | 150° |
| 2026-02-19 21:44 | 35.55082 | 139.77940 | 27 ft | 1 kts | 150° |
| 2026-02-19 21:44 | 35.55066 | 139.77951 | 27 ft | 5 kts | 150° |
| 2026-02-19 21:44 | 35.55019 | 139.77984 | 29 ft | 11 kts | 150° |
| 2026-02-19 21:44 | 35.54960 | 139.78019 | 29 ft | 9 kts | 168° |
| 2026-02-19 21:45 | 35.54892 | 139.77978 | 27 ft | 13 kts | 198° |
| 2026-02-19 21:45 | 35.54796 | 139.78018 | 28 ft | 17 kts | 150° |
| 2026-02-19 21:45 | 35.54681 | 139.78096 | 28 ft | 21 kts | 151° |
| 2026-02-19 21:45 | 35.54549 | 139.78191 | 28 ft | 23 kts | 149° |
| 2026-02-19 21:46 | 35.54401 | 139.78297 | 27 ft | 26 kts | 149° |
| 2026-02-19 21:46 | 35.54249 | 139.78406 | 29 ft | 24 kts | 150° |
| 2026-02-19 21:46 | 35.54093 | 139.78516 | 27 ft | 27 kts | 150° |
| 2026-02-19 21:46 | 35.53937 | 139.78627 | 27 ft | 26 kts | 149° |
| 2026-02-19 21:47 | 35.53803 | 139.78723 | 28 ft | 19 kts | 149° |
| 2026-02-19 21:47 | 35.53687 | 139.78827 | 28 ft | 23 kts | 140° |
| 2026-02-19 21:47 | 35.53555 | 139.78962 | 28 ft | 25 kts | 140° |
| 2026-02-19 21:47 | 35.53459 | 139.79063 | 28 ft | 9 kts | 140° |
| 2026-02-19 21:48 | 35.53406 | 139.79121 | 28 ft | 12 kts | 133° |
| 2026-02-19 21:48 | 35.53369 | 139.79218 | 29 ft | 13 kts | 94° |
| 2026-02-19 21:48 | 35.53406 | 139.79328 | 30 ft | 15 kts | 61° |
| 2026-02-19 21:48 | 35.53463 | 139.79445 | 27 ft | 17 kts | 59° |
| 2026-02-19 21:49 | 35.53524 | 139.79574 | 29 ft | 19 kts | 60° |
| 2026-02-19 21:49 | 35.53598 | 139.79731 | 31 ft | 23 kts | 59° |
| 2026-02-19 21:49 | 35.53678 | 139.79899 | 27 ft | 21 kts | 59° |
| 2026-02-19 21:49 | 35.53690 | 139.80026 | 26 ft | 16 kts | 128° |
| 2026-02-19 21:50 | 35.53596 | 139.80105 | 31 ft | 17 kts | 150° |
| 2026-02-19 21:50 | 35.53493 | 139.80178 | 36 ft | 18 kts | 150° |
| 2026-02-19 21:50 | 35.53382 | 139.80257 | 41 ft | 19 kts | 150° |
| 2026-02-19 21:50 | 35.53263 | 139.80340 | 46 ft | 20 kts | 150° |
| 2026-02-19 21:51 | 35.53139 | 139.80428 | 50 ft | 21 kts | 150° |
| 2026-02-19 21:51 | 35.53011 | 139.80515 | 48 ft | 21 kts | 161° |
| 2026-02-19 21:51 | 35.52887 | 139.80446 | 48 ft | 21 kts | 220° |
| 2026-02-19 21:51 | 35.52774 | 139.80319 | 48 ft | 23 kts | 223° |
| 2026-02-19 21:52 | 35.52667 | 139.80197 | 53 ft | 18 kts | 223° |
| 2026-02-19 21:52 | 35.52574 | 139.80149 | 52 ft | 14 kts | 151° |
| 2026-02-19 21:52 | 35.52503 | 139.80235 | 50 ft | 13 kts | 134° |
| 2026-02-19 21:52 | 35.52486 | 139.80257 | 50 ft | 0 kts | 133° |
| 2026-02-19 21:53 | 35.52485 | 139.80258 | 50 ft | 1 kts | 133° |
| 2026-02-19 21:54 | 35.52473 | 139.80274 | 51 ft | 4 kts | 133° |
| 2026-02-19 21:54 | 35.52447 | 139.80309 | 51 ft | 7 kts | 133° |
| 2026-02-19 21:54 | 35.52427 | 139.80336 | 53 ft | 0 kts | 133° |
| 2026-02-19 21:55 | 35.52425 | 139.80342 | 53 ft | 2 kts | 117° |
| 2026-02-19 21:55 | 35.52447 | 139.80391 | 54 ft | 0 kts | 43° |
| 2026-02-19 21:56 | 35.52595 | 139.80560 | 55 ft | 76 kts | 42° |
| 2026-02-19 21:56 | 35.53217 | 139.81255 | 51 ft | 162 kts | 41° |
| 2026-02-19 21:56 | 35.54130 | 139.82302 | 760 ft | 186 kts | 41° |
| 2026-02-19 21:56 | 35.55073 | 139.83366 | 2000 ft | 185 kts | 42° |
| 2026-02-19 21:57 | 35.55941 | 139.84508 | 2716 ft | 186 kts | 57° |
| 2026-02-19 21:57 | 35.56384 | 139.86051 | 2947 ft | 206 kts | 92° |
| 2026-02-19 21:57 | 35.55985 | 139.87833 | 3214 ft | 229 kts | 113° |
| 2026-02-19 21:57 | 35.55378 | 139.89718 | 3706 ft | 244 kts | 112° |
| 2026-02-19 21:58 | 35.54804 | 139.91721 | 4353 ft | 252 kts | 114° |
| 2026-02-19 21:58 | 35.53893 | 139.93566 | 5013 ft | 256 kts | 136° |
| 2026-02-19 21:58 | 35.52416 | 139.94740 | 5683 ft | 256 kts | 163° |
| 2026-02-19 21:58 | 35.50653 | 139.94917 | 6392 ft | 257 kts | 188° |
| 2026-02-19 21:59 | 35.48874 | 139.94533 | 7073 ft | 262 kts | 193° |
| 2026-02-19 21:59 | 35.47077 | 139.94052 | 7734 ft | 266 kts | 197° |
| 2026-02-19 21:59 | 35.45362 | 139.93192 | 8387 ft | 267 kts | 216° |
| 2026-02-19 21:59 | 35.43976 | 139.91703 | 9118 ft | 266 kts | 230° |
| 2026-02-19 22:00 | 35.42725 | 139.90029 | 9888 ft | 267 kts | 232° |
| 2026-02-19 22:00 | 35.41468 | 139.88309 | 10429 ft | 277 kts | 232° |
| 2026-02-19 22:00 | 35.40143 | 139.86505 | 10726 ft | 293 kts | 232° |
| 2026-02-19 22:00 | 35.38733 | 139.84602 | 11039 ft | 309 kts | 232° |
| 2026-02-19 22:01 | 35.37265 | 139.82633 | 11514 ft | 317 kts | 232° |
| 2026-02-19 22:01 | 35.35768 | 139.80633 | 12110 ft | 320 kts | 232° |
| 2026-02-19 22:01 | 35.34251 | 139.78608 | 12737 ft | 323 kts | 232° |
| 2026-02-19 22:01 | 35.33242 | 139.77264 | 13161 ft | 325 kts | 232° |
| 2026-02-19 22:02 | 35.31150 | 139.74567 | 14007 ft | 330 kts | 229° |
| 2026-02-19 22:02 | 35.30016 | 139.73304 | 14381 ft | 333 kts | 226° |
| 2026-02-19 22:02 | 35.28265 | 139.71460 | 14991 ft | 335 kts | 225° |
| 2026-02-19 22:02 | 35.26476 | 139.69607 | 15595 ft | 336 kts | 226° |
| 2026-02-19 22:03 | 35.24694 | 139.67756 | 16203 ft | 337 kts | 226° |
| 2026-02-19 22:03 | 35.22901 | 139.65892 | 16768 ft | 339 kts | 226° |
| 2026-02-19 22:03 | 35.21101 | 139.64017 | 17375 ft | 340 kts | 226° |
| 2026-02-19 22:03 | 35.19293 | 139.62134 | 17942 ft | 342 kts | 226° |
| 2026-02-19 22:04 | 35.17477 | 139.60243 | 18504 ft | 344 kts | 226° |
| 2026-02-19 22:04 | 35.15644 | 139.58334 | 18959 ft | 347 kts | 227° |
| 2026-02-19 22:04 | 35.13808 | 139.56425 | 19437 ft | 348 kts | 227° |
| 2026-02-19 22:04 | 35.11957 | 139.54500 | 19926 ft | 349 kts | 227° |
| 2026-02-19 22:05 | 35.10107 | 139.52574 | 20388 ft | 351 kts | 227° |
| 2026-02-19 22:05 | 35.08407 | 139.50472 | 20863 ft | 345 kts | 237° |
| 2026-02-19 22:05 | 35.07217 | 139.47976 | 21325 ft | 338 kts | 252° |
| 2026-02-19 22:05 | 35.06571 | 139.45240 | 21824 ft | 335 kts | 260° |
| 2026-02-19 22:06 | 35.06108 | 139.42448 | 22308 ft | 336 kts | 261° |
| 2026-02-19 22:06 | 35.05667 | 139.39639 | 22776 ft | 337 kts | 261° |
| 2026-02-19 22:06 | 35.05217 | 139.36821 | 23241 ft | 339 kts | 261° |
| 2026-02-19 22:06 | 35.04758 | 139.34002 | 23685 ft | 340 kts | 261° |
| 2026-02-19 22:07 | 35.04291 | 139.31164 | 24078 ft | 341 kts | 261° |
| 2026-02-19 22:07 | 35.03820 | 139.28323 | 24463 ft | 342 kts | 261° |
| 2026-02-19 22:07 | 35.03344 | 139.25471 | 24849 ft | 344 kts | 261° |
| 2026-02-19 22:07 | 35.02866 | 139.22612 | 25233 ft | 344 kts | 261° |
| 2026-02-19 22:08 | 35.02392 | 139.19787 | 25624 ft | 345 kts | 261° |
| 2026-02-19 22:08 | 35.01902 | 139.16868 | 26039 ft | 346 kts | 261° |
| 2026-02-19 22:08 | 35.01417 | 139.13984 | 26451 ft | 348 kts | 261° |
| 2026-02-19 22:08 | 35.00936 | 139.11128 | 26859 ft | 349 kts | 261° |
| 2026-02-19 22:09 | 35.00445 | 139.08223 | 27313 ft | 350 kts | 261° |
| 2026-02-19 22:09 | 34.99951 | 139.05308 | 27755 ft | 352 kts | 261° |
| 2026-02-19 22:09 | 34.99455 | 139.02388 | 28177 ft | 354 kts | 261° |
| 2026-02-19 22:09 | 34.98983 | 138.99434 | 28682 ft | 354 kts | 263° |
| 2026-02-19 22:10 | 34.98701 | 138.96447 | 29173 ft | 355 kts | 266° |
| 2026-02-19 22:10 | 34.98500 | 138.93441 | 29631 ft | 357 kts | 267° |
| 2026-02-19 22:10 | 34.98332 | 138.90410 | 30085 ft | 359 kts | 267° |
| 2026-02-19 22:10 | 34.98180 | 138.87361 | 30497 ft | 361 kts | 267° |
| 2026-02-19 22:11 | 34.98031 | 138.84300 | 30884 ft | 362 kts | 267° |
| 2026-02-19 22:11 | 34.97881 | 138.81228 | 31244 ft | 365 kts | 267° |
| 2026-02-19 22:11 | 34.97725 | 138.78126 | 31617 ft | 367 kts | 267° |
| 2026-02-19 22:11 | 34.97562 | 138.75011 | 31991 ft | 369 kts | 266° |
| 2026-02-19 22:12 | 34.97397 | 138.71884 | 32184 ft | 367 kts | 266° |
| 2026-02-19 22:12 | 34.97234 | 138.68849 | 32195 ft | 351 kts | 266° |
| 2026-02-19 22:12 | 34.97077 | 138.65935 | 32195 ft | 338 kts | 266° |
| 2026-02-19 22:12 | 34.96922 | 138.63095 | 32198 ft | 335 kts | 266° |
| 2026-02-19 22:13 | 34.96611 | 138.57377 | 32202 ft | 347 kts | 266° |
| 2026-02-19 22:13 | 34.96282 | 138.51344 | 32201 ft | 366 kts | 266° |
| 2026-02-19 22:14 | 34.96109 | 138.48204 | 32204 ft | 377 kts | 266° |
| 2026-02-19 22:14 | 34.95929 | 138.44966 | 32200 ft | 388 kts | 266° |
| 2026-02-19 22:14 | 34.95559 | 138.38363 | 32193 ft | 390 kts | 266° |
| 2026-02-19 22:15 | 34.95186 | 138.31760 | 32198 ft | 390 kts | 266° |
| 2026-02-19 22:15 | 34.94809 | 138.25158 | 32198 ft | 390 kts | 266° |
| 2026-02-19 22:16 | 34.94430 | 138.18564 | 32205 ft | 391 kts | 266° |
| 2026-02-19 22:16 | 34.94042 | 138.11946 | 32198 ft | 391 kts | 266° |
| 2026-02-19 22:17 | 34.93661 | 138.05385 | 32204 ft | 391 kts | 266° |
| 2026-02-19 22:17 | 34.93269 | 137.98748 | 32204 ft | 390 kts | 266° |
| 2026-02-19 22:18 | 34.92874 | 137.92153 | 32211 ft | 390 kts | 266° |
| 2026-02-19 22:18 | 34.92477 | 137.85569 | 32220 ft | 390 kts | 266° |
| 2026-02-19 22:19 | 34.92074 | 137.78954 | 32210 ft | 391 kts | 266° |
| 2026-02-19 22:19 | 34.91674 | 137.72400 | 32202 ft | 391 kts | 266° |
| 2026-02-19 22:20 | 34.90777 | 137.65884 | 32203 ft | 393 kts | 256° |
| 2026-02-19 22:20 | 34.89041 | 137.59556 | 32206 ft | 394 kts | 253° |
| 2026-02-19 22:21 | 34.87142 | 137.53294 | 32205 ft | 394 kts | 252° |
| 2026-02-19 22:21 | 34.85223 | 137.47033 | 32226 ft | 394 kts | 252° |
| 2026-02-19 22:22 | 34.83375 | 137.40759 | 32208 ft | 394 kts | 253° |
| 2026-02-19 22:22 | 34.81589 | 137.34435 | 32205 ft | 394 kts | 253° |
| 2026-02-19 22:23 | 34.80703 | 137.31303 | 32059 ft | 388 kts | 253° |
| 2026-02-19 22:23 | 34.79829 | 137.28239 | 31874 ft | 376 kts | 253° |
| 2026-02-19 22:23 | 34.78981 | 137.25287 | 31741 ft | 364 kts | 253° |
| 2026-02-19 22:23 | 34.78155 | 137.22422 | 31388 ft | 357 kts | 253° |
| 2026-02-19 22:24 | 34.77336 | 137.19574 | 30908 ft | 355 kts | 253° |
| 2026-02-19 22:24 | 34.76525 | 137.16756 | 30420 ft | 352 kts | 253° |
| 2026-02-19 22:24 | 34.75717 | 137.13951 | 29879 ft | 349 kts | 253° |
| 2026-02-19 22:24 | 34.74918 | 137.11184 | 29415 ft | 345 kts | 253° |
| 2026-02-19 22:25 | 34.74127 | 137.08446 | 28952 ft | 341 kts | 253° |
| 2026-02-19 22:25 | 34.73342 | 137.05737 | 28491 ft | 337 kts | 253° |
| 2026-02-19 22:25 | 34.72567 | 137.03061 | 28030 ft | 334 kts | 253° |
| 2026-02-19 22:25 | 34.71808 | 137.00444 | 27576 ft | 331 kts | 253° |
| 2026-02-19 22:26 | 34.71045 | 136.97814 | 27129 ft | 329 kts | 253° |
| 2026-02-19 22:26 | 34.70288 | 136.95205 | 26683 ft | 326 kts | 253° |
| 2026-02-19 22:26 | 34.69535 | 136.92605 | 26230 ft | 324 kts | 253° |
| 2026-02-19 22:26 | 34.68787 | 136.90033 | 25781 ft | 323 kts | 253° |
| 2026-02-19 22:27 | 34.68040 | 136.87469 | 25329 ft | 321 kts | 253° |
| 2026-02-19 22:27 | 34.67294 | 136.84913 | 24871 ft | 320 kts | 253° |
| 2026-02-19 22:27 | 34.66552 | 136.82373 | 24412 ft | 319 kts | 253° |
| 2026-02-19 22:27 | 34.65808 | 136.79829 | 23952 ft | 319 kts | 253° |
| 2026-02-19 22:28 | 34.65067 | 136.77293 | 23439 ft | 318 kts | 253° |
| 2026-02-19 22:28 | 34.64329 | 136.74770 | 22954 ft | 316 kts | 253° |
| 2026-02-19 22:28 | 34.63596 | 136.72263 | 22494 ft | 314 kts | 253° |
| 2026-02-19 22:28 | 34.62866 | 136.69772 | 22031 ft | 312 kts | 253° |
| 2026-02-19 22:29 | 34.62141 | 136.67300 | 21568 ft | 310 kts | 253° |
| 2026-02-19 22:29 | 34.61418 | 136.64839 | 21101 ft | 309 kts | 253° |
| 2026-02-19 22:29 | 34.60697 | 136.62385 | 20645 ft | 308 kts | 253° |
| 2026-02-19 22:29 | 34.59979 | 136.59943 | 20191 ft | 307 kts | 253° |
| 2026-02-19 22:30 | 34.59263 | 136.57511 | 19712 ft | 306 kts | 252° |
| 2026-02-19 22:30 | 34.58545 | 136.55071 | 19264 ft | 306 kts | 252° |
| 2026-02-19 22:30 | 34.57837 | 136.52669 | 18804 ft | 306 kts | 252° |
| 2026-02-19 22:30 | 34.57120 | 136.50238 | 18319 ft | 306 kts | 252° |
| 2026-02-19 22:31 | 34.56400 | 136.47806 | 17824 ft | 306 kts | 252° |
| 2026-02-19 22:31 | 34.55672 | 136.45389 | 17368 ft | 304 kts | 252° |
| 2026-02-19 22:31 | 34.54945 | 136.42990 | 16893 ft | 302 kts | 252° |
| 2026-02-19 22:31 | 34.54222 | 136.40598 | 16437 ft | 302 kts | 252° |
| 2026-02-19 22:32 | 34.53505 | 136.38213 | 15965 ft | 301 kts | 252° |
| 2026-02-19 22:32 | 34.52792 | 136.35826 | 15511 ft | 301 kts | 253° |
| 2026-02-19 22:32 | 34.52084 | 136.33433 | 15036 ft | 300 kts | 254° |
| 2026-02-19 22:32 | 34.51581 | 136.31004 | 14596 ft | 297 kts | 261° |
| 2026-02-19 22:33 | 34.51221 | 136.28546 | 14156 ft | 295 kts | 263° |
| 2026-02-19 22:33 | 34.50891 | 136.26091 | 13666 ft | 295 kts | 263° |
| 2026-02-19 22:33 | 34.50566 | 136.23621 | 13034 ft | 298 kts | 263° |
| 2026-02-19 22:33 | 34.50243 | 136.21136 | 12518 ft | 298 kts | 263° |
| 2026-02-19 22:34 | 34.49919 | 136.18655 | 12058 ft | 296 kts | 263° |
| 2026-02-19 22:34 | 34.49597 | 136.16199 | 11612 ft | 294 kts | 263° |
| 2026-02-19 22:34 | 34.49276 | 136.13765 | 11135 ft | 292 kts | 263° |
| 2026-02-19 22:34 | 34.48958 | 136.11342 | 10686 ft | 290 kts | 264° |
| 2026-02-19 22:35 | 34.48720 | 136.08938 | 10379 ft | 282 kts | 271° |
| 2026-02-19 22:35 | 34.48957 | 136.06655 | 10236 ft | 266 kts | 286° |
| 2026-02-19 22:35 | 34.49490 | 136.04592 | 10099 ft | 255 kts | 289° |
| 2026-02-19 22:35 | 34.50059 | 136.02606 | 9932 ft | 246 kts | 290° |
| 2026-02-19 22:36 | 34.50635 | 136.00609 | 9643 ft | 256 kts | 290° |
| 2026-02-19 22:36 | 34.51218 | 135.98563 | 9287 ft | 257 kts | 290° |
| 2026-02-19 22:36 | 34.51800 | 135.96512 | 8869 ft | 256 kts | 290° |
| 2026-02-19 22:36 | 34.52377 | 135.94479 | 8512 ft | 254 kts | 290° |
| 2026-02-19 22:37 | 34.52947 | 135.92452 | 8149 ft | 253 kts | 290° |
| 2026-02-19 22:37 | 34.53516 | 135.90436 | 7783 ft | 252 kts | 290° |
| 2026-02-19 22:37 | 34.54082 | 135.88438 | 7440 ft | 251 kts | 290° |
| 2026-02-19 22:37 | 34.54642 | 135.86423 | 7076 ft | 251 kts | 290° |
| 2026-02-19 22:38 | 34.55193 | 135.84421 | 6722 ft | 250 kts | 290° |
| 2026-02-19 22:38 | 34.55741 | 135.82426 | 6351 ft | 248 kts | 290° |
| 2026-02-19 22:38 | 34.56287 | 135.80445 | 5987 ft | 248 kts | 290° |
| 2026-02-19 22:38 | 34.56835 | 135.78458 | 5643 ft | 248 kts | 290° |
| 2026-02-19 22:39 | 34.57339 | 135.76634 | 5314 ft | 247 kts | 290° |
| 2026-02-19 22:39 | 34.57879 | 135.74675 | 5065 ft | 241 kts | 291° |
| 2026-02-19 22:39 | 34.58401 | 135.72779 | 4929 ft | 232 kts | 291° |
| 2026-02-19 22:39 | 34.58902 | 135.70964 | 4813 ft | 222 kts | 291° |
| 2026-02-19 22:40 | 34.59381 | 135.69225 | 4691 ft | 215 kts | 291° |
| 2026-02-19 22:40 | 34.59861 | 135.67506 | 4565 ft | 215 kts | 291° |
| 2026-02-19 22:40 | 34.60369 | 135.65902 | 4460 ft | 214 kts | 298° |
| 2026-02-19 22:40 | 34.61239 | 135.64406 | 4291 ft | 212 kts | 314° |
| 2026-02-19 22:41 | 34.62288 | 135.63156 | 4056 ft | 211 kts | 317° |
| 2026-02-19 22:41 | 34.63357 | 135.61940 | 3848 ft | 211 kts | 317° |
| 2026-02-19 22:41 | 34.64411 | 135.60706 | 3612 ft | 210 kts | 317° |
| 2026-02-19 22:41 | 34.65427 | 135.59480 | 3430 ft | 204 kts | 316° |
| 2026-02-19 22:42 | 34.66422 | 135.58274 | 3176 ft | 201 kts | 316° |
| 2026-02-19 22:42 | 34.67416 | 135.57073 | 2886 ft | 200 kts | 316° |
| 2026-02-19 22:42 | 34.68394 | 135.55889 | 2613 ft | 196 kts | 316° |
| 2026-02-19 22:42 | 34.69329 | 135.54757 | 2315 ft | 184 kts | 316° |
| 2026-02-19 22:43 | 34.70199 | 135.53703 | 2061 ft | 172 kts | 316° |
| 2026-02-19 22:43 | 34.71022 | 135.52708 | 1828 ft | 161 kts | 316° |
| 2026-02-19 22:43 | 34.71787 | 135.51779 | 1584 ft | 150 kts | 316° |
| 2026-02-19 22:43 | 34.72497 | 135.50922 | 1383 ft | 139 kts | 316° |
| 2026-02-19 22:44 | 34.73157 | 135.50117 | 1185 ft | 130 kts | 316° |